sensor_id;sensor_type;location;lat;lon;timestamp;P1;durP1;ratioP1;P2;durP2;ratioP2
19861;SDS011;10093;48.148;8.542;2022-09-30T00:01:34;20.98;;;12.70;;
19861;SDS011;10093;48.148;8.542;2022-09-30T00:04:01;18.45;;;11.55;;
19861;SDS011;10093;48.148;8.542;2022-09-30T00:06:27;25.52;;;14.38;;
19861;SDS011;10093;48.148;8.542;2022-09-30T00:08:54;23.27;;;13.73;;
19861;SDS011;10093;48.148;8.542;2022-09-30T00:11:22;17.35;;;12.10;;
19861;SDS011;10093;48.148;8.542;2022-09-30T00:13:50;24.13;;;14.02;;
19861;SDS011;10093;48.148;8.542;2022-09-30T00:16:17;23.33;;;13.80;;
19861;SDS011;10093;48.148;8.542;2022-09-30T00:18:45;22.98;;;13.02;;
19861;SDS011;10093;48.148;8.542;2022-09-30T00:21:11;27.77;;;15.13;;
19861;SDS011;10093;48.148;8.542;2022-09-30T00:23:40;25.23;;;15.13;;
19861;SDS011;10093;48.148;8.542;2022-09-30T00:26:07;26.00;;;14.60;;
19861;SDS011;10093;48.148;8.542;2022-09-30T00:28:36;20.35;;;13.20;;
19861;SDS011;10093;48.148;8.542;2022-09-30T00:31:04;18.33;;;11.55;;
19861;SDS011;10093;48.148;8.542;2022-09-30T00:33:31;19.38;;;12.52;;
19861;SDS011;10093;48.148;8.542;2022-09-30T00:35:58;16.38;;;11.55;;
19861;SDS011;10093;48.148;8.542;2022-09-30T00:38:24;16.75;;;11.48;;
19861;SDS011;10093;48.148;8.542;2022-09-30T00:40:49;16.35;;;10.90;;
19861;SDS011;10093;48.148;8.542;2022-09-30T00:43:17;16.52;;;11.43;;
19861;SDS011;10093;48.148;8.542;2022-09-30T00:45:54;17.15;;;11.95;;
19861;SDS011;10093;48.148;8.542;2022-09-30T00:48:24;17.25;;;11.13;;
19861;SDS011;10093;48.148;8.542;2022-09-30T00:50:55;12.02;;;8.60;;
19861;SDS011;10093;48.148;8.542;2022-09-30T00:53:24;11.13;;;8.30;;
19861;SDS011;10093;48.148;8.542;2022-09-30T00:56:05;14.73;;;8.95;;
19861;SDS011;10093;48.148;8.542;2022-09-30T00:58:37;18.20;;;9.45;;
19861;SDS011;10093;48.148;8.542;2022-09-30T01:01:04;12.93;;;8.80;;
19861;SDS011;10093;48.148;8.542;2022-09-30T01:03:30;12.93;;;9.52;;
19861;SDS011;10093;48.148;8.542;2022-09-30T01:05:58;13.25;;;9.48;;
19861;SDS011;10093;48.148;8.542;2022-09-30T01:08:24;13.05;;;9.05;;
19861;SDS011;10093;48.148;8.542;2022-09-30T01:10:52;25.15;;;12.85;;
19861;SDS011;10093;48.148;8.542;2022-09-30T01:13:17;33.20;;;16.05;;
19861;SDS011;10093;48.148;8.542;2022-09-30T01:15:56;34.10;;;17.42;;
19861;SDS011;10093;48.148;8.542;2022-09-30T01:30:06;27.95;;;14.43;;
19861;SDS011;10093;48.148;8.542;2022-09-30T01:35:37;27.42;;;14.65;;
19861;SDS011;10093;48.148;8.542;2022-09-30T01:38:16;33.97;;;16.90;;
19861;SDS011;10093;48.148;8.542;2022-09-30T01:40:46;30.20;;;15.45;;
19861;SDS011;10093;48.148;8.542;2022-09-30T01:46:37;26.27;;;14.45;;
19861;SDS011;10093;48.148;8.542;2022-09-30T01:52:21;20.00;;;11.30;;
19861;SDS011;10093;48.148;8.542;2022-09-30T01:54:54;23.50;;;13.52;;
19861;SDS011;10093;48.148;8.542;2022-09-30T01:57:46;20.70;;;12.80;;
19861;SDS011;10093;48.148;8.542;2022-09-30T02:00:23;20.45;;;12.63;;
19861;SDS011;10093;48.148;8.542;2022-09-30T02:02:50;18.67;;;12.00;;
19861;SDS011;10093;48.148;8.542;2022-09-30T02:05:40;19.67;;;11.88;;
19861;SDS011;10093;48.148;8.542;2022-09-30T02:08:27;23.52;;;13.52;;
19861;SDS011;10093;48.148;8.542;2022-09-30T02:11:07;34.80;;;16.25;;
19861;SDS011;10093;48.148;8.542;2022-09-30T02:13:57;44.67;;;17.98;;
19861;SDS011;10093;48.148;8.542;2022-09-30T02:16:40;39.72;;;17.90;;
19861;SDS011;10093;48.148;8.542;2022-09-30T02:19:32;59.63;;;22.33;;
19861;SDS011;10093;48.148;8.542;2022-09-30T02:22:06;52.25;;;20.58;;
19861;SDS011;10093;48.148;8.542;2022-09-30T02:24:38;34.60;;;17.25;;
19861;SDS011;10093;48.148;8.542;2022-09-30T02:27:08;29.13;;;15.70;;
19861;SDS011;10093;48.148;8.542;2022-09-30T02:29:48;30.77;;;16.20;;
19861;SDS011;10093;48.148;8.542;2022-09-30T02:32:23;26.73;;;15.02;;
19861;SDS011;10093;48.148;8.542;2022-09-30T02:35:00;25.10;;;15.45;;
19861;SDS011;10093;48.148;8.542;2022-09-30T02:37:34;29.27;;;15.90;;
19861;SDS011;10093;48.148;8.542;2022-09-30T02:40:05;37.90;;;17.35;;
19861;SDS011;10093;48.148;8.542;2022-09-30T02:42:34;43.97;;;19.77;;
19861;SDS011;10093;48.148;8.542;2022-09-30T02:45:07;43.25;;;18.33;;
19861;SDS011;10093;48.148;8.542;2022-09-30T02:50:53;36.75;;;16.65;;
19861;SDS011;10093;48.148;8.542;2022-09-30T02:59:11;30.02;;;14.75;;
19861;SDS011;10093;48.148;8.542;2022-09-30T03:01:38;27.55;;;13.65;;
19861;SDS011;10093;48.148;8.542;2022-09-30T03:04:07;33.83;;;15.55;;
19861;SDS011;10093;48.148;8.542;2022-09-30T03:06:35;36.90;;;16.40;;
19861;SDS011;10093;48.148;8.542;2022-09-30T03:09:02;35.67;;;16.02;;
19861;SDS011;10093;48.148;8.542;2022-09-30T03:11:28;39.97;;;16.40;;
19861;SDS011;10093;48.148;8.542;2022-09-30T03:16:43;33.80;;;15.45;;
19861;SDS011;10093;48.148;8.542;2022-09-30T03:27:38;36.20;;;16.52;;
19861;SDS011;10093;48.148;8.542;2022-09-30T03:30:13;40.20;;;17.70;;
19861;SDS011;10093;48.148;8.542;2022-09-30T03:35:16;28.27;;;15.20;;
19861;SDS011;10093;48.148;8.542;2022-09-30T03:43:19;31.90;;;14.77;;
19861;SDS011;10093;48.148;8.542;2022-09-30T03:48:37;40.10;;;17.23;;
19861;SDS011;10093;48.148;8.542;2022-09-30T03:51:04;41.85;;;16.17;;
19861;SDS011;10093;48.148;8.542;2022-09-30T03:53:36;31.25;;;14.88;;
19861;SDS011;10093;48.148;8.542;2022-09-30T03:56:04;39.20;;;17.80;;
19861;SDS011;10093;48.148;8.542;2022-09-30T03:58:29;28.50;;;16.10;;
19861;SDS011;10093;48.148;8.542;2022-09-30T04:00:55;32.22;;;14.63;;
19861;SDS011;10093;48.148;8.542;2022-09-30T04:03:21;30.40;;;15.40;;
19861;SDS011;10093;48.148;8.542;2022-09-30T04:05:48;34.78;;;15.88;;
19861;SDS011;10093;48.148;8.542;2022-09-30T04:08:14;33.75;;;15.65;;
19861;SDS011;10093;48.148;8.542;2022-09-30T04:10:40;31.30;;;14.85;;
19861;SDS011;10093;48.148;8.542;2022-09-30T04:13:07;29.33;;;14.10;;
19861;SDS011;10093;48.148;8.542;2022-09-30T04:15:34;38.83;;;16.50;;
19861;SDS011;10093;48.148;8.542;2022-09-30T04:18:00;43.97;;;17.38;;
19861;SDS011;10093;48.148;8.542;2022-09-30T04:20:26;40.88;;;16.38;;
19861;SDS011;10093;48.148;8.542;2022-09-30T04:22:55;37.38;;;15.60;;
19861;SDS011;10093;48.148;8.542;2022-09-30T04:25:22;33.47;;;14.60;;
19861;SDS011;10093;48.148;8.542;2022-09-30T04:27:47;34.40;;;15.13;;
19861;SDS011;10093;48.148;8.542;2022-09-30T04:30:13;35.47;;;14.90;;
19861;SDS011;10093;48.148;8.542;2022-09-30T04:32:41;31.33;;;13.98;;
19861;SDS011;10093;48.148;8.542;2022-09-30T04:35:09;43.28;;;17.52;;
19861;SDS011;10093;48.148;8.542;2022-09-30T04:37:42;37.60;;;15.95;;
19861;SDS011;10093;48.148;8.542;2022-09-30T04:40:08;44.30;;;17.52;;
19861;SDS011;10093;48.148;8.542;2022-09-30T04:42:34;41.42;;;17.13;;
19861;SDS011;10093;48.148;8.542;2022-09-30T04:45:00;50.35;;;18.35;;
19861;SDS011;10093;48.148;8.542;2022-09-30T04:47:27;38.75;;;15.70;;
19861;SDS011;10093;48.148;8.542;2022-09-30T04:49:54;48.53;;;18.38;;
19861;SDS011;10093;48.148;8.542;2022-09-30T04:52:20;35.67;;;15.68;;
19861;SDS011;10093;48.148;8.542;2022-09-30T04:54:46;32.90;;;14.05;;
19861;SDS011;10093;48.148;8.542;2022-09-30T04:57:11;37.25;;;17.45;;
19861;SDS011;10093;48.148;8.542;2022-09-30T04:59:38;36.17;;;15.55;;
19861;SDS011;10093;48.148;8.542;2022-09-30T05:02:03;33.97;;;13.82;;
19861;SDS011;10093;48.148;8.542;2022-09-30T05:04:29;42.13;;;16.08;;
19861;SDS011;10093;48.148;8.542;2022-09-30T05:06:57;43.50;;;16.35;;
19861;SDS011;10093;48.148;8.542;2022-09-30T05:09:24;43.30;;;16.27;;
19861;SDS011;10093;48.148;8.542;2022-09-30T05:11:49;47.90;;;16.70;;
19861;SDS011;10093;48.148;8.542;2022-09-30T05:14:16;51.88;;;17.35;;
19861;SDS011;10093;48.148;8.542;2022-09-30T05:16:41;44.10;;;16.45;;
19861;SDS011;10093;48.148;8.542;2022-09-30T05:19:07;40.88;;;15.68;;
19861;SDS011;10093;48.148;8.542;2022-09-30T05:21:33;40.63;;;16.27;;
19861;SDS011;10093;48.148;8.542;2022-09-30T05:23:59;35.72;;;14.73;;
19861;SDS011;10093;48.148;8.542;2022-09-30T05:26:26;39.22;;;15.27;;
19861;SDS011;10093;48.148;8.542;2022-09-30T05:28:51;36.38;;;15.10;;
19861;SDS011;10093;48.148;8.542;2022-09-30T05:31:17;32.78;;;14.15;;
19861;SDS011;10093;48.148;8.542;2022-09-30T05:33:44;32.80;;;14.98;;
19861;SDS011;10093;48.148;8.542;2022-09-30T05:36:11;31.55;;;14.65;;
19861;SDS011;10093;48.148;8.542;2022-09-30T05:38:38;28.60;;;12.73;;
19861;SDS011;10093;48.148;8.542;2022-09-30T05:41:08;49.00;;;13.45;;
19861;SDS011;10093;48.148;8.542;2022-09-30T05:43:38;60.13;;;15.70;;
19861;SDS011;10093;48.148;8.542;2022-09-30T05:46:04;40.08;;;12.93;;
19861;SDS011;10093;48.148;8.542;2022-09-30T05:48:30;21.58;;;10.50;;
19861;SDS011;10093;48.148;8.542;2022-09-30T05:50:56;21.42;;;11.38;;
19861;SDS011;10093;48.148;8.542;2022-09-30T05:53:25;23.15;;;11.85;;
19861;SDS011;10093;48.148;8.542;2022-09-30T05:55:51;26.25;;;14.00;;
19861;SDS011;10093;48.148;8.542;2022-09-30T05:58:17;23.30;;;13.25;;
19861;SDS011;10093;48.148;8.542;2022-09-30T06:00:44;23.33;;;12.00;;
19861;SDS011;10093;48.148;8.542;2022-09-30T06:03:13;25.75;;;12.40;;
19861;SDS011;10093;48.148;8.542;2022-09-30T06:05:39;23.70;;;12.15;;
19861;SDS011;10093;48.148;8.542;2022-09-30T06:08:05;24.73;;;12.23;;
19861;SDS011;10093;48.148;8.542;2022-09-30T06:10:34;26.30;;;12.77;;
19861;SDS011;10093;48.148;8.542;2022-09-30T06:13:03;22.55;;;12.20;;
19861;SDS011;10093;48.148;8.542;2022-09-30T06:15:29;23.02;;;11.60;;
19861;SDS011;10093;48.148;8.542;2022-09-30T06:17:55;24.35;;;14.02;;
19861;SDS011;10093;48.148;8.542;2022-09-30T06:20:21;21.80;;;10.98;;
19861;SDS011;10093;48.148;8.542;2022-09-30T06:22:46;22.00;;;10.85;;
19861;SDS011;10093;48.148;8.542;2022-09-30T06:25:12;22.40;;;12.07;;
19861;SDS011;10093;48.148;8.542;2022-09-30T06:27:38;20.73;;;12.15;;
19861;SDS011;10093;48.148;8.542;2022-09-30T06:30:05;20.67;;;11.35;;
19861;SDS011;10093;48.148;8.542;2022-09-30T06:32:31;20.33;;;10.80;;
19861;SDS011;10093;48.148;8.542;2022-09-30T06:34:57;17.48;;;9.82;;
19861;SDS011;10093;48.148;8.542;2022-09-30T06:37:22;20.20;;;12.05;;
19861;SDS011;10093;48.148;8.542;2022-09-30T06:39:49;17.45;;;10.07;;
19861;SDS011;10093;48.148;8.542;2022-09-30T06:42:15;22.23;;;11.73;;
19861;SDS011;10093;48.148;8.542;2022-09-30T06:44:42;23.30;;;11.25;;
19861;SDS011;10093;48.148;8.542;2022-09-30T06:47:08;20.38;;;11.50;;
19861;SDS011;10093;48.148;8.542;2022-09-30T06:49:34;23.98;;;11.95;;
19861;SDS011;10093;48.148;8.542;2022-09-30T06:52:00;23.83;;;12.63;;
19861;SDS011;10093;48.148;8.542;2022-09-30T06:54:26;24.60;;;12.38;;
19861;SDS011;10093;48.148;8.542;2022-09-30T06:56:52;29.35;;;13.93;;
19861;SDS011;10093;48.148;8.542;2022-09-30T06:59:21;33.72;;;13.55;;
19861;SDS011;10093;48.148;8.542;2022-09-30T07:01:50;35.22;;;15.20;;
19861;SDS011;10093;48.148;8.542;2022-09-30T07:04:16;43.70;;;16.35;;
19861;SDS011;10093;48.148;8.542;2022-09-30T07:06:41;40.17;;;17.13;;
19861;SDS011;10093;48.148;8.542;2022-09-30T07:09:07;39.08;;;15.43;;
19861;SDS011;10093;48.148;8.542;2022-09-30T07:11:35;38.08;;;16.10;;
19861;SDS011;10093;48.148;8.542;2022-09-30T07:14:01;36.08;;;16.30;;
19861;SDS011;10093;48.148;8.542;2022-09-30T07:16:28;26.88;;;13.48;;
19861;SDS011;10093;48.148;8.542;2022-09-30T07:18:56;27.52;;;12.98;;
19861;SDS011;10093;48.148;8.542;2022-09-30T07:21:23;23.90;;;12.10;;
19861;SDS011;10093;48.148;8.542;2022-09-30T07:23:48;25.58;;;12.68;;
19861;SDS011;10093;48.148;8.542;2022-09-30T07:26:17;33.22;;;20.55;;
19861;SDS011;10093;48.148;8.542;2022-09-30T07:28:45;22.80;;;13.73;;
19861;SDS011;10093;48.148;8.542;2022-09-30T07:31:15;19.95;;;11.38;;
19861;SDS011;10093;48.148;8.542;2022-09-30T07:33:42;19.77;;;11.07;;
19861;SDS011;10093;48.148;8.542;2022-09-30T07:36:09;19.58;;;9.77;;
19861;SDS011;10093;48.148;8.542;2022-09-30T07:38:36;17.85;;;10.35;;
19861;SDS011;10093;48.148;8.542;2022-09-30T07:43:44;32.35;;;22.25;;
19861;SDS011;10093;48.148;8.542;2022-09-30T07:46:12;15.77;;;10.23;;
19861;SDS011;10093;48.148;8.542;2022-09-30T07:48:40;16.73;;;9.27;;
19861;SDS011;10093;48.148;8.542;2022-09-30T07:51:10;19.45;;;11.30;;
19861;SDS011;10093;48.148;8.542;2022-09-30T07:53:42;14.77;;;8.02;;
19861;SDS011;10093;48.148;8.542;2022-09-30T07:56:10;17.35;;;11.45;;
19861;SDS011;10093;48.148;8.542;2022-09-30T07:58:37;19.13;;;12.32;;
19861;SDS011;10093;48.148;8.542;2022-09-30T08:01:03;13.07;;;9.27;;
19861;SDS011;10093;48.148;8.542;2022-09-30T08:03:31;15.57;;;11.20;;
19861;SDS011;10093;48.148;8.542;2022-09-30T08:06:06;10.68;;;7.22;;
19861;SDS011;10093;48.148;8.542;2022-09-30T08:08:35;13.88;;;9.70;;
19861;SDS011;10093;48.148;8.542;2022-09-30T08:11:01;9.13;;;6.65;;
19861;SDS011;10093;48.148;8.542;2022-09-30T08:13:28;45.22;;;34.53;;
19861;SDS011;10093;48.148;8.542;2022-09-30T08:15:53;43.65;;;31.35;;
19861;SDS011;10093;48.148;8.542;2022-09-30T08:18:19;46.10;;;32.60;;
19861;SDS011;10093;48.148;8.542;2022-09-30T08:20:44;12.50;;;7.18;;
19861;SDS011;10093;48.148;8.542;2022-09-30T08:23:10;11.45;;;7.40;;
19861;SDS011;10093;48.148;8.542;2022-09-30T08:25:36;8.82;;;6.07;;
19861;SDS011;10093;48.148;8.542;2022-09-30T08:28:01;6.50;;;4.90;;
19861;SDS011;10093;48.148;8.542;2022-09-30T08:30:27;12.88;;;9.10;;
19861;SDS011;10093;48.148;8.542;2022-09-30T08:32:53;9.68;;;7.07;;
19861;SDS011;10093;48.148;8.542;2022-09-30T08:35:19;9.07;;;7.15;;
19861;SDS011;10093;48.148;8.542;2022-09-30T08:37:44;12.52;;;8.88;;
19861;SDS011;10093;48.148;8.542;2022-09-30T08:40:17;7.38;;;4.88;;
19861;SDS011;10093;48.148;8.542;2022-09-30T08:42:55;12.18;;;7.93;;
19861;SDS011;10093;48.148;8.542;2022-09-30T08:48:28;7.30;;;5.18;;
19861;SDS011;10093;48.148;8.542;2022-09-30T08:51:19;7.15;;;5.28;;
19861;SDS011;10093;48.148;8.542;2022-09-30T08:53:48;7.30;;;5.35;;
19861;SDS011;10093;48.148;8.542;2022-09-30T08:56:26;7.60;;;6.25;;
19861;SDS011;10093;48.148;8.542;2022-09-30T08:58:55;10.02;;;6.03;;
19861;SDS011;10093;48.148;8.542;2022-09-30T09:01:29;8.85;;;6.65;;
19861;SDS011;10093;48.148;8.542;2022-09-30T09:03:58;6.72;;;5.32;;
19861;SDS011;10093;48.148;8.542;2022-09-30T09:06:27;7.88;;;5.82;;
19861;SDS011;10093;48.148;8.542;2022-09-30T09:09:03;5.88;;;5.03;;
19861;SDS011;10093;48.148;8.542;2022-09-30T09:17:31;6.85;;;5.20;;
19861;SDS011;10093;48.148;8.542;2022-09-30T09:20:20;5.57;;;4.63;;
19861;SDS011;10093;48.148;8.542;2022-09-30T09:22:49;9.40;;;6.00;;
19861;SDS011;10093;48.148;8.542;2022-09-30T09:25:17;7.15;;;4.90;;
19861;SDS011;10093;48.148;8.542;2022-09-30T09:30:23;21.25;;;19.00;;
19861;SDS011;10093;48.148;8.542;2022-09-30T09:32:55;10.30;;;6.57;;
19861;SDS011;10093;48.148;8.542;2022-09-30T09:35:26;7.63;;;6.13;;
19861;SDS011;10093;48.148;8.542;2022-09-30T09:38:05;10.85;;;6.18;;
19861;SDS011;10093;48.148;8.542;2022-09-30T09:51:38;11.50;;;8.43;;
19861;SDS011;10093;48.148;8.542;2022-09-30T09:54:11;11.77;;;7.40;;
19861;SDS011;10093;48.148;8.542;2022-09-30T09:56:39;11.25;;;8.15;;
19861;SDS011;10093;48.148;8.542;2022-09-30T10:01:39;9.43;;;6.35;;
19861;SDS011;10093;48.148;8.542;2022-09-30T10:04:16;11.88;;;8.07;;
19861;SDS011;10093;48.148;8.542;2022-09-30T10:06:49;10.23;;;5.78;;
19861;SDS011;10093;48.148;8.542;2022-09-30T10:14:35;7.88;;;5.90;;
19861;SDS011;10093;48.148;8.542;2022-09-30T10:17:20;5.78;;;4.90;;
19861;SDS011;10093;48.148;8.542;2022-09-30T10:19:51;7.70;;;5.82;;
19861;SDS011;10093;48.148;8.542;2022-09-30T10:22:22;6.90;;;5.30;;
19861;SDS011;10093;48.148;8.542;2022-09-30T10:25:15;5.85;;;4.32;;
19861;SDS011;10093;48.148;8.542;2022-09-30T10:33:11;4.60;;;4.20;;
19861;SDS011;10093;48.148;8.542;2022-09-30T10:36:14;4.00;;;3.67;;
19861;SDS011;10093;48.148;8.542;2022-09-30T10:38:46;3.97;;;3.30;;
19861;SDS011;10093;48.148;8.542;2022-09-30T10:41:22;3.83;;;3.42;;
19861;SDS011;10093;48.148;8.542;2022-09-30T10:43:51;5.07;;;4.00;;
19861;SDS011;10093;48.148;8.542;2022-09-30T10:46:23;4.18;;;3.40;;
19861;SDS011;10093;48.148;8.542;2022-09-30T10:48:57;7.22;;;6.18;;
19861;SDS011;10093;48.148;8.542;2022-09-30T10:51:43;3.30;;;3.00;;
19861;SDS011;10093;48.148;8.542;2022-09-30T10:54:14;3.60;;;3.05;;
19861;SDS011;10093;48.148;8.542;2022-09-30T10:57:05;4.15;;;3.50;;
19861;SDS011;10093;48.148;8.542;2022-09-30T10:59:43;2.58;;;1.92;;
19861;SDS011;10093;48.148;8.542;2022-09-30T11:02:56;3.05;;;2.53;;
19861;SDS011;10093;48.148;8.542;2022-09-30T11:13:15;3.90;;;2.38;;
19861;SDS011;10093;48.148;8.542;2022-09-30T11:18:30;6.38;;;3.03;;
19861;SDS011;10093;48.148;8.542;2022-09-30T11:21:09;2.90;;;2.60;;
19861;SDS011;10093;48.148;8.542;2022-09-30T11:26:30;4.57;;;2.90;;
19861;SDS011;10093;48.148;8.542;2022-09-30T11:40:28;4.47;;;2.78;;
19861;SDS011;10093;48.148;8.542;2022-09-30T11:51:04;2.80;;;1.70;;
19861;SDS011;10093;48.148;8.542;2022-09-30T11:53:56;2.67;;;1.50;;
19861;SDS011;10093;48.148;8.542;2022-09-30T11:56:52;1.30;;;1.02;;
19861;SDS011;10093;48.148;8.542;2022-09-30T11:59:41;2.95;;;1.20;;
19861;SDS011;10093;48.148;8.542;2022-09-30T12:02:13;1.40;;;1.20;;
19861;SDS011;10093;48.148;8.542;2022-09-30T12:04:53;4.32;;;1.20;;
19861;SDS011;10093;48.148;8.542;2022-09-30T12:07:45;1.20;;;1.10;;
19861;SDS011;10093;48.148;8.542;2022-09-30T12:10:31;2.00;;;1.80;;
19861;SDS011;10093;48.148;8.542;2022-09-30T12:13:11;2.95;;;1.33;;
19861;SDS011;10093;48.148;8.542;2022-09-30T12:15:42;3.05;;;1.80;;
19861;SDS011;10093;48.148;8.542;2022-09-30T12:18:12;1.85;;;1.60;;
19861;SDS011;10093;48.148;8.542;2022-09-30T12:20:49;2.55;;;1.23;;
19861;SDS011;10093;48.148;8.542;2022-09-30T12:26:10;2.47;;;1.67;;
19861;SDS011;10093;48.148;8.542;2022-09-30T12:28:41;2.97;;;1.35;;
19861;SDS011;10093;48.148;8.542;2022-09-30T12:43:07;1.38;;;1.27;;
19861;SDS011;10093;48.148;8.542;2022-09-30T12:45:52;1.05;;;0.90;;
19861;SDS011;10093;48.148;8.542;2022-09-30T12:48:53;0.70;;;0.50;;
19861;SDS011;10093;48.148;8.542;2022-09-30T12:51:28;0.88;;;0.55;;
19861;SDS011;10093;48.148;8.542;2022-09-30T12:53:57;1.02;;;0.40;;
19861;SDS011;10093;48.148;8.542;2022-09-30T12:56:56;2.58;;;0.50;;
19861;SDS011;10093;48.148;8.542;2022-09-30T12:59:29;2.35;;;0.50;;
19861;SDS011;10093;48.148;8.542;2022-09-30T13:01:57;0.73;;;0.57;;
19861;SDS011;10093;48.148;8.542;2022-09-30T13:04:39;3.90;;;0.70;;
19861;SDS011;10093;48.148;8.542;2022-09-30T13:07:17;0.70;;;0.70;;
19861;SDS011;10093;48.148;8.542;2022-09-30T13:09:55;1.02;;;0.80;;
19861;SDS011;10093;48.148;8.542;2022-09-30T13:12:46;1.67;;;0.90;;
19861;SDS011;10093;48.148;8.542;2022-09-30T13:31:24;1.00;;;0.90;;
19861;SDS011;10093;48.148;8.542;2022-09-30T13:34:23;1.42;;;1.25;;
19861;SDS011;10093;48.148;8.542;2022-09-30T13:36:59;2.53;;;1.30;;
19861;SDS011;10093;48.148;8.542;2022-09-30T13:53:35;1.13;;;1.00;;
19861;SDS011;10093;48.148;8.542;2022-09-30T13:56:06;1.30;;;1.20;;
19861;SDS011;10093;48.148;8.542;2022-09-30T14:04:02;2.50;;;1.02;;
19861;SDS011;10093;48.148;8.542;2022-09-30T14:22:59;0.77;;;0.60;;
19861;SDS011;10093;48.148;8.542;2022-09-30T14:25:25;4.40;;;3.85;;
19861;SDS011;10093;48.148;8.542;2022-09-30T14:28:02;3.05;;;2.85;;
19861;SDS011;10093;48.148;8.542;2022-09-30T14:30:42;2.80;;;2.60;;
19861;SDS011;10093;48.148;8.542;2022-09-30T14:33:31;2.40;;;1.77;;
19861;SDS011;10093;48.148;8.542;2022-09-30T14:35:59;5.03;;;4.47;;
19861;SDS011;10093;48.148;8.542;2022-09-30T14:38:28;2.08;;;1.65;;
19861;SDS011;10093;48.148;8.542;2022-09-30T14:40:57;3.50;;;1.63;;
19861;SDS011;10093;48.148;8.542;2022-09-30T14:43:30;3.47;;;3.17;;
19861;SDS011;10093;48.148;8.542;2022-09-30T14:46:00;1.55;;;1.45;;
19861;SDS011;10093;48.148;8.542;2022-09-30T14:48:32;1.67;;;0.80;;
19861;SDS011;10093;48.148;8.542;2022-09-30T14:51:05;1.50;;;0.60;;
19861;SDS011;10093;48.148;8.542;2022-09-30T14:53:37;3.60;;;0.90;;
19861;SDS011;10093;48.148;8.542;2022-09-30T14:56:18;1.73;;;0.55;;
19861;SDS011;10093;48.148;8.542;2022-09-30T14:58:46;4.75;;;2.10;;
19861;SDS011;10093;48.148;8.542;2022-09-30T15:01:16;1.80;;;0.50;;
19861;SDS011;10093;48.148;8.542;2022-09-30T15:03:47;2.47;;;2.33;;
19861;SDS011;10093;48.148;8.542;2022-09-30T15:06:35;37.05;;;32.90;;
19861;SDS011;10093;48.148;8.542;2022-09-30T15:09:06;5.28;;;4.72;;
19861;SDS011;10093;48.148;8.542;2022-09-30T15:11:39;0.60;;;0.60;;
19861;SDS011;10093;48.148;8.542;2022-09-30T15:14:11;1.30;;;0.63;;
19861;SDS011;10093;48.148;8.542;2022-09-30T15:16:46;2.30;;;2.10;;
19861;SDS011;10093;48.148;8.542;2022-09-30T15:19:23;2.08;;;0.50;;
19861;SDS011;10093;48.148;8.542;2022-09-30T15:21:54;1.25;;;0.50;;
19861;SDS011;10093;48.148;8.542;2022-09-30T15:24:26;0.68;;;0.50;;
19861;SDS011;10093;48.148;8.542;2022-09-30T15:26:55;2.13;;;2.03;;
19861;SDS011;10093;48.148;8.542;2022-09-30T15:29:22;3.15;;;0.73;;
19861;SDS011;10093;48.148;8.542;2022-09-30T15:31:48;0.50;;;0.50;;
19861;SDS011;10093;48.148;8.542;2022-09-30T15:34:20;1.38;;;0.50;;
19861;SDS011;10093;48.148;8.542;2022-09-30T15:36:59;1.63;;;0.40;;
19861;SDS011;10093;48.148;8.542;2022-09-30T15:39:31;1.67;;;0.38;;
19861;SDS011;10093;48.148;8.542;2022-09-30T15:45:04;1.50;;;0.40;;
19861;SDS011;10093;48.148;8.542;2022-09-30T15:47:55;2.75;;;0.30;;
19861;SDS011;10093;48.148;8.542;2022-09-30T15:50:37;0.35;;;0.30;;
19861;SDS011;10093;48.148;8.542;2022-09-30T15:55:43;0.50;;;0.50;;
19861;SDS011;10093;48.148;8.542;2022-09-30T16:01:21;3.85;;;0.50;;
19861;SDS011;10093;48.148;8.542;2022-09-30T16:03:49;1.08;;;0.82;;
19861;SDS011;10093;48.148;8.542;2022-09-30T16:06:23;2.42;;;0.90;;
19861;SDS011;10093;48.148;8.542;2022-09-30T16:09:02;2.17;;;0.60;;
19861;SDS011;10093;48.148;8.542;2022-09-30T16:11:36;1.98;;;0.60;;
19861;SDS011;10093;48.148;8.542;2022-09-30T16:14:09;0.70;;;0.70;;
19861;SDS011;10093;48.148;8.542;2022-09-30T16:16:46;1.88;;;0.73;;
19861;SDS011;10093;48.148;8.542;2022-09-30T16:19:14;1.23;;;0.98;;
19861;SDS011;10093;48.148;8.542;2022-09-30T16:21:43;1.98;;;1.73;;
19861;SDS011;10093;48.148;8.542;2022-09-30T16:29:22;1.27;;;1.17;;
19861;SDS011;10093;48.148;8.542;2022-09-30T16:31:52;1.13;;;1.00;;
19861;SDS011;10093;48.148;8.542;2022-09-30T16:34:23;3.55;;;0.80;;
19861;SDS011;10093;48.148;8.542;2022-09-30T16:36:51;1.92;;;0.73;;
19861;SDS011;10093;48.148;8.542;2022-09-30T16:39:18;4.00;;;0.93;;
19861;SDS011;10093;48.148;8.542;2022-09-30T16:41:44;0.90;;;0.88;;
19861;SDS011;10093;48.148;8.542;2022-09-30T16:44:10;1.42;;;0.90;;
19861;SDS011;10093;48.148;8.542;2022-09-30T16:46:36;0.82;;;0.82;;
19861;SDS011;10093;48.148;8.542;2022-09-30T16:49:10;3.45;;;1.88;;
19861;SDS011;10093;48.148;8.542;2022-09-30T16:51:40;99.70;;;47.35;;
19861;SDS011;10093;48.148;8.542;2022-09-30T16:54:07;99.05;;;47.75;;
19861;SDS011;10093;48.148;8.542;2022-09-30T16:56:33;20.90;;;10.18;;
19861;SDS011;10093;48.148;8.542;2022-09-30T16:58:59;4.68;;;2.80;;
19861;SDS011;10093;48.148;8.542;2022-09-30T17:01:24;9.57;;;5.38;;
19861;SDS011;10093;48.148;8.542;2022-09-30T17:03:53;2.13;;;1.90;;
19861;SDS011;10093;48.148;8.542;2022-09-30T17:06:23;6.43;;;3.97;;
19861;SDS011;10093;48.148;8.542;2022-09-30T17:08:51;7.38;;;4.22;;
19861;SDS011;10093;48.148;8.542;2022-09-30T17:11:17;4.07;;;1.58;;
19861;SDS011;10093;48.148;8.542;2022-09-30T17:13:44;1.70;;;1.60;;
19861;SDS011;10093;48.148;8.542;2022-09-30T17:16:10;1.95;;;1.67;;
19861;SDS011;10093;48.148;8.542;2022-09-30T17:18:36;0.80;;;0.80;;
19861;SDS011;10093;48.148;8.542;2022-09-30T17:21:02;1.20;;;1.08;;
19861;SDS011;10093;48.148;8.542;2022-09-30T17:23:28;1.25;;;1.15;;
19861;SDS011;10093;48.148;8.542;2022-09-30T17:25:54;4.25;;;2.25;;
19861;SDS011;10093;48.148;8.542;2022-09-30T17:28:19;1.88;;;1.20;;
19861;SDS011;10093;48.148;8.542;2022-09-30T17:30:46;0.85;;;0.85;;
19861;SDS011;10093;48.148;8.542;2022-09-30T17:33:13;0.90;;;0.90;;
19861;SDS011;10093;48.148;8.542;2022-09-30T17:35:39;1.20;;;1.10;;
19861;SDS011;10093;48.148;8.542;2022-09-30T17:38:08;2.92;;;1.98;;
19861;SDS011;10093;48.148;8.542;2022-09-30T17:40:35;3.63;;;2.28;;
19861;SDS011;10093;48.148;8.542;2022-09-30T17:43:20;3.83;;;1.80;;
19861;SDS011;10093;48.148;8.542;2022-09-30T17:45:48;5.13;;;2.20;;
19861;SDS011;10093;48.148;8.542;2022-09-30T17:48:19;3.38;;;2.20;;
19861;SDS011;10093;48.148;8.542;2022-09-30T17:50:46;9.10;;;5.88;;
19861;SDS011;10093;48.148;8.542;2022-09-30T17:53:13;35.42;;;17.50;;
19861;SDS011;10093;48.148;8.542;2022-09-30T17:55:42;10.88;;;6.13;;
19861;SDS011;10093;48.148;8.542;2022-09-30T17:58:11;44.70;;;22.48;;
19861;SDS011;10093;48.148;8.542;2022-09-30T18:00:38;29.98;;;16.55;;
19861;SDS011;10093;48.148;8.542;2022-09-30T18:03:04;4.85;;;1.58;;
19861;SDS011;10093;48.148;8.542;2022-09-30T18:05:31;8.18;;;3.80;;
19861;SDS011;10093;48.148;8.542;2022-09-30T18:07:59;5.43;;;3.70;;
19861;SDS011;10093;48.148;8.542;2022-09-30T18:10:25;1.10;;;1.10;;
19861;SDS011;10093;48.148;8.542;2022-09-30T18:12:52;2.83;;;2.55;;
19861;SDS011;10093;48.148;8.542;2022-09-30T18:15:19;8.00;;;5.28;;
19861;SDS011;10093;48.148;8.542;2022-09-30T18:17:46;7.55;;;4.78;;
19861;SDS011;10093;48.148;8.542;2022-09-30T18:20:12;12.10;;;7.40;;